Time;durP1;ratioP1;P1;durP2;ratioP2;P2;SDS_P1;SDS_P2;PMS_P1;PMS_P2;Temp;Humidity;BMP_temperature;BMP_pressure;BME280_temperature;BME280_humidity;BME280_pressure;Samples;Min_cycle;Max_cycle;Signal;HPM_P1;HPM_P2
2023/01/31 00:01:58;;;;;;;7.10;3.95;;;2.40;99.90;;;;;;5088316;28;20029;-30
2023/01/31 00:04:23;;;;;;;3.03;2.63;;;2.50;99.90;;;;;;5092866;28;20427;-30
2023/01/31 00:06:50;;;;;;;4.38;3.25;;;2.50;99.90;;;;;;5085936;28;20447;-32
2023/01/31 00:09:16;;;;;;;2.85;2.53;;;2.50;99.90;;;;;;5086788;28;20539;-34
2023/01/31 00:11:42;;;;;;;6.47;3.13;;;2.60;99.90;;;;;;5089876;28;20028;-29
2023/01/31 00:14:09;;;;;;;4.60;2.78;;;2.50;99.90;;;;;;5097478;28;20037;-30
2023/01/31 00:16:35;;;;;;;4.20;3.25;;;2.50;99.90;;;;;;5088013;28;20043;-29
2023/01/31 00:19:01;;;;;;;2.60;2.30;;;2.50;99.90;;;;;;5099640;28;20090;-29
2023/01/31 00:21:28;;;;;;;2.65;1.50;;;2.50;99.90;;;;;;5091306;28;20032;-31
2023/01/31 00:23:55;;;;;;;4.90;3.80;;;2.40;99.90;;;;;;5096275;28;20035;-31
2023/01/31 00:26:28;;;;;;;7.78;3.20;;;2.50;99.90;;;;;;5087996;28;20443;-30
2023/01/31 00:28:55;;;;;;;4.43;2.47;;;2.40;99.90;;;;;;5089243;28;20027;-30
2023/01/31 00:31:22;;;;;;;2.53;2.03;;;2.40;99.90;;;;;;5091895;28;20028;-32
2023/01/31 00:33:49;;;;;;;2.53;2.33;;;2.40;99.90;;;;;;5094146;28;20115;-30
2023/01/31 00:36:17;;;;;;;4.10;3.28;;;2.40;99.90;;;;;;5073531;28;20076;-33
2023/01/31 00:38:44;;;;;;;4.55;2.55;;;2.40;99.90;;;;;;5090192;28;20560;-29
2023/01/31 00:41:10;;;;;;;4.47;3.70;;;2.50;99.90;;;;;;5097806;28;20069;-29
2023/01/31 00:43:36;;;;;;;3.83;2.33;;;2.40;99.90;;;;;;5092477;28;20077;-30
2023/01/31 00:46:03;;;;;;;4.50;4.00;;;2.40;99.90;;;;;;5097336;28;20488;-29
2023/01/31 00:48:28;;;;;;;4.13;2.78;;;2.40;99.90;;;;;;5092400;28;20106;-30
2023/01/31 00:50:54;;;;;;;3.10;2.42;;;2.40;99.90;;;;;;5093596;28;20028;-29
2023/01/31 00:53:22;;;;;;;4.07;2.75;;;2.40;99.90;;;;;;5093724;28;20485;-30
2023/01/31 00:55:53;;;;;;;3.20;2.80;;;2.40;99.90;;;;;;5092558;28;20043;-30
2023/01/31 00:58:19;;;;;;;3.80;2.65;;;2.40;99.90;;;;;;5093718;28;20062;-30
2023/01/31 01:00:46;;;;;;;3.17;2.45;;;2.40;99.90;;;;;;5098029;28;20573;-30
2023/01/31 01:03:12;;;;;;;4.82;2.92;;;2.40;99.90;;;;;;5089758;28;20020;-29
2023/01/31 01:05:38;;;;;;;2.88;1.90;;;2.40;99.90;;;;;;5070248;28;20024;-31
2023/01/31 01:08:04;;;;;;;2.50;2.30;;;2.30;99.90;;;;;;5086113;28;20082;-30
2023/01/31 01:10:29;;;;;;;3.63;1.80;;;2.40;99.90;;;;;;5096408;28;20142;-31
2023/01/31 01:12:55;;;;;;;3.13;2.45;;;2.30;99.90;;;;;;5091632;28;20065;-31
2023/01/31 01:15:21;;;;;;;2.78;2.58;;;2.30;99.90;;;;;;5095133;28;20515;-31
2023/01/31 01:17:46;;;;;;;2.30;2.10;;;2.40;99.90;;;;;;5093861;28;20073;-30
2023/01/31 01:20:12;;;;;;;6.68;3.58;;;2.30;99.90;;;;;;5087532;28;20033;-30
2023/01/31 01:22:38;;;;;;;5.20;4.00;;;2.20;99.90;;;;;;5089673;28;20039;-31
2023/01/31 01:25:05;;;;;;;4.80;2.80;;;2.30;99.90;;;;;;5095230;28;20043;-31
2023/01/31 01:27:31;;;;;;;2.58;2.35;;;2.20;99.90;;;;;;5094333;28;20023;-32
2023/01/31 01:29:57;;;;;;;5.53;3.28;;;2.20;99.90;;;;;;5094230;28;20043;-29
2023/01/31 01:32:23;;;;;;;2.75;2.55;;;2.10;99.90;;;;;;5092003;28;20477;-30
2023/01/31 01:34:48;;;;;;;2.28;1.77;;;2.10;99.90;;;;;;5094449;28;20077;-29
2023/01/31 01:37:18;;;;;;;2.50;2.17;;;2.10;99.90;;;;;;5094622;28;20032;-30
2023/01/31 01:39:53;;;;;;;2.72;2.50;;;2.10;99.90;;;;;;5074799;28;20035;-29
2023/01/31 01:42:22;;;;;;;1.40;1.40;;;2.00;99.90;;;;;;5095573;28;20042;-30
2023/01/31 01:44:53;;;;;;;4.43;3.90;;;2.00;99.90;;;;;;5099118;28;20193;-30
2023/01/31 01:47:36;;;;;;;6.07;2.38;;;2.00;99.90;;;;;;5095802;28;20484;-31
2023/01/31 01:50:29;;;;;;;6.80;3.03;;;2.00;99.90;;;;;;5098157;28;20051;-29
2023/01/31 01:53:10;;;;;;;3.30;2.83;;;1.90;99.90;;;;;;5093815;28;20553;-30
2023/01/31 01:55:55;;;;;;;4.90;2.63;;;1.90;99.90;;;;;;5085947;28;20099;-30
2023/01/31 01:58:38;;;;;;;1.42;1.33;;;1.80;99.90;;;;;;5096858;28;20495;-32
2023/01/31 02:01:06;;;;;;;2.13;2.03;;;1.80;99.90;;;;;;5092306;28;20039;-31
2023/01/31 02:03:32;;;;;;;2.45;2.20;;;1.70;99.90;;;;;;5070601;28;20029;-30
2023/01/31 02:06:01;;;;;;;2.42;1.48;;;1.70;99.90;;;;;;5073447;28;20033;-31
2023/01/31 02:08:31;;;;;;;5.15;2.97;;;1.80;99.90;;;;;;5091847;28;20460;-33
2023/01/31 02:11:03;;;;;;;2.70;2.50;;;1.70;99.90;;;;;;5061157;28;20053;-32
2023/01/31 02:13:30;;;;;;;6.10;2.47;;;1.70;99.90;;;;;;5086527;28;20054;-32
2023/01/31 02:15:56;;;;;;;3.58;2.65;;;1.70;99.90;;;;;;5088711;28;20054;-29
2023/01/31 02:18:24;;;;;;;2.17;2.00;;;1.80;99.90;;;;;;5082351;28;20024;-32
2023/01/31 02:21:20;;;;;;;2.07;1.93;;;1.70;99.90;;;;;;5088634;28;20028;-31
2023/01/31 02:24:07;;;;;;;5.50;2.35;;;1.70;99.90;;;;;;5074236;28;20890;-30
2023/01/31 02:26:45;;;;;;;7.30;2.35;;;1.60;99.90;;;;;;5069186;28;20051;-32
2023/01/31 02:29:29;;;;;;;2.83;2.03;;;1.60;99.90;;;;;;5091401;28;20024;-31
2023/01/31 02:32:16;;;;;;;4.05;2.80;;;1.60;99.90;;;;;;5091910;28;20027;-32
2023/01/31 02:35:02;;;;;;;4.63;2.60;;;1.60;99.90;;;;;;5092594;28;20028;-30
2023/01/31 02:37:58;;;;;;;5.47;2.80;;;1.50;99.90;;;;;;5077438;28;20114;-30
2023/01/31 02:40:45;;;;;;;1.83;1.55;;;1.60;99.90;;;;;;5090425;28;20071;-30
2023/01/31 02:43:29;;;;;;;2.15;1.90;;;1.50;99.90;;;;;;5088662;28;20046;-30
2023/01/31 02:46:10;;;;;;;2.05;1.83;;;1.50;99.90;;;;;;5090174;28;20110;-28
2023/01/31 02:48:47;;;;;;;2.65;2.28;;;1.50;99.90;;;;;;5090030;28;20039;-32
2023/01/31 02:51:35;;;;;;;1.50;1.38;;;1.50;99.90;;;;;;5088980;28;20035;-29
2023/01/31 02:56:13;;;;;;;9.35;2.85;;;1.50;99.90;;;;;;5090036;28;20032;-30
2023/01/31 02:57:10;;;;;;;6.43;2.67;;;1.50;99.90;;;;;;5093106;28;20067;-29
2023/01/31 02:59:38;;;;;;;3.58;2.83;;;1.40;99.90;;;;;;5087583;28;20028;-30
2023/01/31 03:02:04;;;;;;;2.55;2.40;;;1.50;99.90;;;;;;5074479;28;20046;-33
2023/01/31 03:04:31;;;;;;;5.75;1.98;;;1.50;99.90;;;;;;5097989;28;20024;-30
2023/01/31 03:07:02;;;;;;;3.22;2.25;;;1.50;99.90;;;;;;5085747;28;20028;-29
2023/01/31 03:09:48;;;;;;;3.97;3.22;;;1.40;99.90;;;;;;5086597;28;20036;-32
2023/01/31 03:12:17;;;;;;;4.80;3.17;;;1.40;99.90;;;;;;5069170;28;20308;-30
2023/01/31 03:15:09;;;;;;;1.88;1.70;;;1.40;99.90;;;;;;5091253;28;20028;-30
2023/01/31 03:17:52;;;;;;;6.45;2.78;;;1.30;99.90;;;;;;5071584;28;20024;-30
2023/01/31 03:20:24;;;;;;;3.10;2.90;;;1.30;99.90;;;;;;5088735;28;20120;-31
2023/01/31 03:23:12;;;;;;;1.65;1.55;;;1.30;99.90;;;;;;5093145;28;20436;-30
2023/01/31 03:25:38;;;;;;;;;;;1.30;99.90;;;;;;5089976;28;20042;-30
2023/01/31 03:28:09;;;;;;;2.58;2.38;;;1.20;99.90;;;;;;5089611;28;19931;-29
2023/01/31 03:30:39;;;;;;;3.72;2.25;;;1.20;99.90;;;;;;5086559;28;20477;-30
2023/01/31 03:33:14;;;;;;;4.00;1.85;;;1.10;99.90;;;;;;5098273;28;20024;-30
2023/01/31 03:35:43;;;;;;;4.18;2.90;;;1.20;99.90;;;;;;5087453;28;20649;-30
2023/01/31 03:38:30;;;;;;;;;;;1.10;99.90;;;;;;5086264;28;20028;-29
2023/01/31 03:41:13;;;;;;;2.17;1.77;;;1.20;99.90;;;;;;5083799;28;20327;-31
2023/01/31 03:43:57;;;;;;;3.92;2.85;;;1.20;99.90;;;;;;5008155;28;20540;-30
2023/01/31 03:46:28;;;;;;;4.22;3.33;;;1.20;99.90;;;;;;5088690;28;20027;-30
2023/01/31 03:48:56;;;;;;;5.75;2.47;;;1.20;99.90;;;;;;5087578;28;20032;-31
2023/01/31 03:51:27;;;;;;;5.57;3.25;;;1.20;99.90;;;;;;5085404;28;20028;-31
2023/01/31 03:53:58;;;;;;;3.35;3.05;;;1.10;99.90;;;;;;5097404;28;20032;-31
2023/01/31 03:56:29;;;;;;;3.60;2.80;;;1.20;99.90;;;;;;5089889;28;20657;-30
2023/01/31 03:59:03;;;;;;;5.55;3.15;;;1.10;99.90;;;;;;5091768;28;20377;-30
2023/01/31 04:01:32;;;;;;;4.10;3.30;;;1.10;99.90;;;;;;5087527;28;20065;-31
2023/01/31 04:04:03;;;;;;;2.20;2.00;;;1.00;99.90;;;;;;5095801;28;20031;-31
2023/01/31 04:06:29;;;;;;;2.08;1.92;;;1.00;99.90;;;;;;5083835;28;20497;-31
2023/01/31 04:08:55;;;;;;;2.53;2.00;;;0.90;99.90;;;;;;5091479;28;20232;-31
2023/01/31 04:11:23;;;;;;;2.92;2.45;;;1.00;99.90;;;;;;5080549;28;20031;-29
2023/01/31 04:13:49;;;;;;;3.58;2.50;;;0.90;99.90;;;;;;5091257;28;20059;-30
2023/01/31 04:16:15;;;;;;;2.70;2.50;;;0.90;99.90;;;;;;5091871;28;20489;-29
2023/01/31 04:18:40;;;;;;;5.32;2.58;;;0.90;99.90;;;;;;5088124;28;20036;-32
2023/01/31 04:21:06;;;;;;;9.52;3.35;;;0.90;99.90;;;;;;5082747;28;20507;-31
2023/01/31 04:23:32;;;;;;;2.63;2.28;;;0.90;99.90;;;;;;5098555;28;20454;-29
2023/01/31 04:26:01;;;;;;;4.65;2.35;;;1.00;99.90;;;;;;5092004;28;20032;-30
2023/01/31 04:28:26;;;;;;;2.92;1.50;;;0.90;99.90;;;;;;5085363;28;20116;-31
2023/01/31 04:30:53;;;;;;;5.63;2.28;;;1.00;99.90;;;;;;5088703;28;20115;-32
2023/01/31 04:33:19;;;;;;;2.38;2.20;;;1.00;99.90;;;;;;5088589;28;20048;-29
2023/01/31 04:35:45;;;;;;;2.47;2.28;;;1.00;99.90;;;;;;5073054;28;20469;-32
2023/01/31 04:38:10;;;;;;;4.07;2.00;;;1.00;99.90;;;;;;5091793;28;20028;-31
2023/01/31 04:40:36;;;;;;;3.50;2.05;;;1.00;99.90;;;;;;5086259;28;20021;-30
2023/01/31 04:43:01;;;;;;;6.13;3.30;;;1.00;99.90;;;;;;5081793;28;20028;-29
2023/01/31 04:45:27;;;;;;;4.68;2.22;;;1.00;99.90;;;;;;5090461;28;20020;-31
2023/01/31 04:47:53;;;;;;;5.60;3.55;;;1.00;99.90;;;;;;5084932;28;20354;-30
2023/01/31 04:50:18;;;;;;;5.53;3.20;;;1.00;99.90;;;;;;5085743;28;20091;-30
2023/01/31 04:52:46;;;;;;;5.15;2.95;;;1.10;99.90;;;;;;5091518;28;20044;-30
2023/01/31 04:55:11;;;;;;;9.48;3.42;;;1.10;99.90;;;;;;5088697;28;20068;-30
2023/01/31 04:57:38;;;;;;;6.63;2.92;;;1.10;99.90;;;;;;5087777;28;20341;-29
2023/01/31 05:00:04;;;;;;;7.03;3.40;;;1.10;99.90;;;;;;5085374;28;20119;-30
2023/01/31 05:02:30;;;;;;;5.07;2.80;;;1.10;99.90;;;;;;5093458;28;20489;-30
2023/01/31 05:04:56;;;;;;;5.07;2.78;;;1.10;99.90;;;;;;5092862;28;20032;-31
2023/01/31 05:07:22;;;;;;;2.67;2.42;;;1.10;99.90;;;;;;5090653;28;20483;-30
2023/01/31 05:09:47;;;;;;;3.30;3.00;;;1.20;99.90;;;;;;5088255;28;20051;-30
2023/01/31 05:12:13;;;;;;;5.72;3.97;;;1.10;99.90;;;;;;5092836;28;20030;-32
2023/01/31 05:14:38;;;;;;;3.83;3.28;;;1.10;99.90;;;;;;5095503;28;20385;-30
2023/01/31 05:17:05;;;;;;;4.50;3.67;;;1.20;99.90;;;;;;5092689;28;20113;-30
2023/01/31 05:19:31;;;;;;;6.45;4.00;;;1.10;99.90;;;;;;5084467;28;20055;-30
2023/01/31 05:21:57;;;;;;;4.05;3.17;;;1.10;99.90;;;;;;5088030;28;20030;-30
2023/01/31 05:24:28;;;;;;;3.53;2.83;;;1.10;99.90;;;;;;5095881;28;20028;-31
2023/01/31 05:26:57;;;;;;;4.55;3.15;;;1.10;99.90;;;;;;5093064;28;20042;-30
2023/01/31 05:29:32;;;;;;;3.50;3.03;;;1.20;99.90;;;;;;5087484;28;20074;-30
2023/01/31 05:32:00;;;;;;;6.22;3.70;;;1.20;99.90;;;;;;5093766;28;20032;-32
2023/01/31 05:34:27;;;;;;;4.47;3.08;;;1.20;99.90;;;;;;5092013;28;20036;-30
2023/01/31 05:36:53;;;;;;;3.58;2.63;;;1.20;99.90;;;;;;5089603;28;20137;-33
2023/01/31 05:39:19;;;;;;;3.55;2.80;;;1.20;99.90;;;;;;5089183;28;20110;-30
2023/01/31 05:41:45;;;;;;;2.17;2.05;;;1.20;99.90;;;;;;5090653;28;20028;-31
2023/01/31 05:44:10;;;;;;;6.60;1.98;;;1.20;99.90;;;;;;5093769;28;20524;-29
2023/01/31 05:46:37;;;;;;;4.22;2.75;;;1.20;99.90;;;;;;5095586;28;20385;-31
2023/01/31 05:49:03;;;;;;;5.25;3.40;;;1.20;99.90;;;;;;5083109;28;20150;-32
2023/01/31 05:51:28;;;;;;;2.72;2.45;;;1.20;99.90;;;;;;5089877;28;20035;-30
2023/01/31 05:53:54;;;;;;;3.42;2.70;;;1.30;99.90;;;;;;5094110;28;20024;-30
2023/01/31 05:56:20;;;;;;;10.05;3.58;;;1.20;99.90;;;;;;5092876;28;20370;-29
2023/01/31 05:58:49;;;;;;;5.05;3.53;;;1.30;99.90;;;;;;5089005;28;20039;-29
2023/01/31 06:01:23;;;;;;;7.72;3.75;;;1.20;99.90;;;;;;5094197;28;20039;-29
2023/01/31 06:03:49;;;;;;;4.32;3.67;;;1.30;99.90;;;;;;5092311;28;20481;-30
2023/01/31 06:06:15;;;;;;;6.45;3.55;;;1.30;99.90;;;;;;5091561;28;20020;-30
2023/01/31 06:08:41;;;;;;;2.97;2.78;;;1.30;99.90;;;;;;5092739;28;20044;-31
2023/01/31 06:11:09;;;;;;;3.28;2.35;;;1.30;99.90;;;;;;5086896;28;20048;-30
2023/01/31 06:13:35;;;;;;;;;;;1.30;99.90;;;;;;5094048;28;20034;-30
2023/01/31 06:16:01;;;;;;;7.13;3.08;;;1.30;99.90;;;;;;5091181;28;19998;-29
2023/01/31 06:18:27;;;;;;;3.08;2.83;;;1.20;99.90;;;;;;5088709;28;20031;-29
2023/01/31 06:20:52;;;;;;;2.92;2.70;;;1.30;99.90;;;;;;5094897;28;20710;-29
2023/01/31 06:23:18;;;;;;;3.72;3.38;;;1.30;99.90;;;;;;5089178;28;20394;-30
2023/01/31 06:25:47;;;;;;;7.05;3.08;;;1.30;99.90;;;;;;5089232;28;20111;-30
2023/01/31 06:28:13;;;;;;;2.15;2.03;;;1.30;99.90;;;;;;5085537;28;20028;-29
2023/01/31 06:30:38;;;;;;;3.90;2.70;;;1.30;99.90;;;;;;5085479;28;20081;-29
2023/01/31 06:33:04;;;;;;;4.82;2.75;;;1.20;99.90;;;;;;5087954;28;20040;-30
2023/01/31 06:35:29;;;;;;;2.72;1.42;;;1.30;99.90;;;;;;5091725;28;20040;-32
2023/01/31 06:37:55;;;;;;;5.20;2.70;;;1.30;99.90;;;;;;5087501;28;20496;-30
2023/01/31 06:40:21;;;;;;;9.38;3.35;;;1.30;99.90;;;;;;5082009;28;20474;-28
2023/01/31 06:42:46;;;;;;;2.95;2.70;;;1.30;99.90;;;;;;5095191;28;20032;-32
2023/01/31 06:45:12;;;;;;;3.67;2.53;;;1.30;99.90;;;;;;5086497;28;20019;-30
2023/01/31 06:47:37;;;;;;;3.42;2.72;;;1.30;99.90;;;;;;5090879;28;20057;-31
2023/01/31 06:50:03;;;;;;;3.72;3.10;;;1.30;99.90;;;;;;5082308;28;20069;-31
2023/01/31 06:52:29;;;;;;;6.00;2.90;;;1.30;99.90;;;;;;5089036;28;20561;-34
2023/01/31 06:54:55;;;;;;;5.00;3.50;;;1.30;99.90;;;;;;5085920;28;20016;-29
2023/01/31 06:57:20;;;;;;;8.45;3.55;;;1.30;99.90;;;;;;5092254;28;20028;-33
2023/01/31 06:59:46;;;;;;;4.47;3.40;;;1.30;99.90;;;;;;5083058;28;20065;-30
2023/01/31 07:02:11;;;;;;;5.97;3.60;;;1.30;99.90;;;;;;5081500;28;20036;-31
2023/01/31 07:04:37;;;;;;;8.52;4.18;;;1.30;99.90;;;;;;5094719;28;20377;-31
2023/01/31 07:07:03;;;;;;;3.60;2.92;;;1.30;99.90;;;;;;5083873;28;20115;-30
2023/01/31 07:09:28;;;;;;;8.52;3.78;;;1.30;99.90;;;;;;5085099;28;20131;-33
2023/01/31 07:11:54;;;;;;;6.03;3.10;;;1.30;99.90;;;;;;5068854;28;20244;-30
2023/01/31 07:14:19;;;;;;;4.13;2.90;;;1.30;99.90;;;;;;5091023;28;20648;-30
2023/01/31 07:16:45;;;;;;;4.32;3.65;;;1.30;99.90;;;;;;5091259;28;20119;-29
2023/01/31 07:19:11;;;;;;;9.95;3.60;;;1.30;99.90;;;;;;5083070;28;20081;-34
2023/01/31 07:21:37;;;;;;;6.63;3.35;;;1.30;99.90;;;;;;5075875;28;20027;-32
2023/01/31 07:24:03;;;;;;;4.80;2.08;;;1.30;99.90;;;;;;5086220;28;20114;-33
2023/01/31 07:26:29;;;;;;;9.63;4.03;;;1.30;99.90;;;;;;5088546;28;20020;-30
2023/01/31 07:28:54;;;;;;;3.33;2.60;;;1.20;99.90;;;;;;5086198;28;20081;-30
2023/01/31 07:31:20;;;;;;;3.50;3.20;;;1.20;99.90;;;;;;5095125;28;20439;-33
2023/01/31 07:33:46;;;;;;;4.68;3.00;;;1.20;99.90;;;;;;5093954;28;20028;-29
2023/01/31 07:36:14;;;;;;;7.88;2.92;;;1.20;99.90;;;;;;5089471;28;20381;-31
2023/01/31 07:38:39;;;;;;;2.67;2.45;;;1.10;99.90;;;;;;5070420;28;20039;-29
2023/01/31 07:41:07;;;;;;;2.83;2.38;;;1.20;99.90;;;;;;5091807;28;20038;-30
2023/01/31 07:43:33;;;;;;;3.85;2.70;;;1.20;99.90;;;;;;5094961;28;20085;-33
2023/01/31 07:45:58;;;;;;;2.00;1.90;;;1.20;99.90;;;;;;5088357;28;20098;-30
2023/01/31 07:48:25;;;;;;;7.05;3.20;;;1.20;99.90;;;;;;5089464;28;20138;-29
2023/01/31 07:50:52;;;;;;;2.63;2.33;;;1.20;99.90;;;;;;5087353;28;20413;-33
2023/01/31 07:53:19;;;;;;;4.68;2.78;;;1.30;99.90;;;;;;5091208;28;20534;-31
2023/01/31 07:55:46;;;;;;;3.78;2.72;;;1.40;99.90;;;;;;5090211;28;20414;-30
2023/01/31 07:58:15;;;;;;;3.20;2.90;;;1.40;99.90;;;;;;5080112;28;20035;-30
2023/01/31 08:03:31;;;;;;;2.00;1.55;;;1.40;99.90;;;;;;5097174;28;20448;-30
2023/01/31 08:06:02;;;;;;;2.03;1.55;;;1.50;99.90;;;;;;5086809;28;20478;-30
2023/01/31 08:08:28;;;;;;;2.10;1.98;;;1.50;99.90;;;;;;5083434;28;20055;-31
2023/01/31 08:10:53;;;;;;;4.82;2.97;;;1.50;99.90;;;;;;5095509;28;20047;-29
2023/01/31 08:13:19;;;;;;;5.20;2.65;;;1.60;99.90;;;;;;5069754;28;20031;-30
2023/01/31 08:15:44;;;;;;;5.82;2.78;;;1.60;99.90;;;;;;5092761;28;20495;-29
2023/01/31 08:18:10;;;;;;;3.70;2.28;;;1.60;99.90;;;;;;5083474;28;20500;-31
2023/01/31 08:20:40;;;;;;;4.75;3.58;;;1.70;99.90;;;;;;5089299;28;20032;-30
2023/01/31 08:23:05;;;;;;;3.42;3.10;;;1.70;99.90;;;;;;5097248;28;20031;-30
2023/01/31 08:25:31;;;;;;;1.85;1.45;;;1.70;99.90;;;;;;5085635;28;20024;-29
2023/01/31 08:27:57;;;;;;;7.13;3.30;;;1.70;99.90;;;;;;5085365;28;20358;-30
2023/01/31 08:30:22;;;;;;;4.40;2.95;;;1.80;99.90;;;;;;5097277;28;20029;-34
2023/01/31 08:32:48;;;;;;;3.58;1.92;;;1.80;99.90;;;;;;5097623;28;20035;-29
2023/01/31 08:35:14;;;;;;;3.60;2.78;;;1.80;99.90;;;;;;5077603;28;20442;-30
2023/01/31 08:37:39;;;;;;;5.00;3.28;;;1.80;99.90;;;;;;5093805;28;20216;-30
2023/01/31 08:40:06;;;;;;;4.88;2.83;;;1.80;99.90;;;;;;5088427;28;20031;-30
2023/01/31 08:42:31;;;;;;;5.72;4.85;;;1.90;99.90;;;;;;5072628;28;20023;-30
2023/01/31 08:44:57;;;;;;;2.75;2.30;;;1.90;99.90;;;;;;5092670;28;20025;-30
2023/01/31 08:47:22;;;;;;;3.67;2.53;;;2.10;99.90;;;;;;5095202;28;20070;-30
2023/01/31 08:49:48;;;;;;;5.25;3.60;;;2.10;99.90;;;;;;5087900;28;20032;-31
2023/01/31 08:52:13;;;;;;;3.40;2.50;;;2.30;99.90;;;;;;5098662;28;20098;-31
2023/01/31 08:54:39;;;;;;;7.00;4.35;;;2.40;99.90;;;;;;5089134;28;20024;-33
2023/01/31 08:57:05;;;;;;;4.90;2.92;;;2.60;99.90;;;;;;5097292;28;20024;-30
2023/01/31 08:59:31;;;;;;;4.60;3.00;;;2.70;99.90;;;;;;5093047;28;20027;-32
2023/01/31 09:01:57;;;;;;;4.97;3.35;;;2.80;99.90;;;;;;5091263;28;20042;-30
2023/01/31 09:04:22;;;;;;;6.95;4.00;;;2.80;99.90;;;;;;5090780;28;20032;-30
2023/01/31 09:06:48;;;;;;;2.55;2.03;;;2.70;99.90;;;;;;5093700;28;20031;-30
2023/01/31 09:09:14;;;;;;;3.08;2.88;;;2.60;99.90;;;;;;5092705;28;20377;-30
2023/01/31 09:11:40;;;;;;;3.90;2.80;;;2.60;99.90;;;;;;5095380;28;20115;-30
2023/01/31 09:14:05;;;;;;;5.65;3.38;;;2.50;99.90;;;;;;5093491;28;20082;-32
2023/01/31 09:16:31;;;;;;;5.38;3.30;;;2.50;99.90;;;;;;5072490;28;20111;-30
2023/01/31 09:18:57;;;;;;;4.57;2.30;;;2.60;99.90;;;;;;5070152;28;20192;-32
2023/01/31 09:21:23;;;;;;;5.28;3.85;;;2.50;99.90;;;;;;5090345;28;20106;-30
2023/01/31 09:23:57;;;;;;;2.72;2.38;;;2.60;99.90;;;;;;5087584;28;20081;-30
2023/01/31 09:26:23;;;;;;;7.63;3.50;;;2.60;99.90;;;;;;5089093;28;20742;-30
2023/01/31 09:28:49;;;;;;;3.70;2.90;;;2.70;99.90;;;;;;5092560;28;20024;-30
2023/01/31 09:31:17;;;;;;;5.45;2.78;;;2.80;99.90;;;;;;5091587;28;20564;-30
2023/01/31 09:33:43;;;;;;;33.83;5.37;;;2.80;99.90;;;;;;5074744;28;20024;-31
2023/01/31 09:36:12;;;;;;;3.10;2.80;;;2.90;99.90;;;;;;5099129;28;20028;-30
2023/01/31 09:38:39;;;;;;;7.32;3.65;;;2.80;99.90;;;;;;5084794;28;20028;-32
2023/01/31 09:41:13;;;;;;;7.72;2.60;;;2.80;99.90;;;;;;5103461;28;20028;-30
2023/01/31 09:43:43;;;;;;;6.57;3.22;;;2.90;99.90;;;;;;5094202;28;20027;-31
2023/01/31 09:46:16;;;;;;;3.67;2.33;;;2.90;99.90;;;;;;5097152;28;20100;-32
2023/01/31 09:48:47;;;;;;;3.08;2.75;;;3.00;99.90;;;;;;5091642;28;20032;-31
2023/01/31 09:51:15;;;;;;;3.47;2.55;;;3.00;99.90;;;;;;5098746;28;20080;-30
2023/01/31 09:53:41;;;;;;;4.83;2.93;;;3.00;99.90;;;;;;5091918;28;20097;-32
2023/01/31 09:56:19;;;;;;;4.53;2.42;;;3.00;99.90;;;;;;5092346;28;20269;-30
2023/01/31 09:59:03;;;;;;;1.70;1.58;;;3.00;99.90;;;;;;5085518;28;20049;-33
2023/01/31 10:01:35;;;;;;;5.45;2.88;;;3.00;99.90;;;;;;5086793;28;20160;-31
2023/01/31 10:04:24;;;;;;;5.70;3.53;;;3.10;99.90;;;;;;5095155;28;20090;-30
2023/01/31 10:06:49;;;;;;;;;;;3.10;99.90;;;;;;5097582;28;20404;-31
2023/01/31 10:09:27;;;;;;;3.60;1.73;;;3.10;99.90;;;;;;5073427;28;19923;-33
2023/01/31 10:11:59;;;;;;;2.00;1.92;;;3.30;99.90;;;;;;5096572;28;20103;-30
2023/01/31 10:14:36;;;;;;;3.60;3.25;;;3.30;99.90;;;;;;5097332;28;20039;-29
2023/01/31 10:17:27;;;;;;;1.92;1.60;;;3.40;99.90;;;;;;5084387;28;20032;-30
2023/01/31 10:19:57;;;;;;;4.03;2.70;;;3.50;99.90;;;;;;5096350;28;20043;-30
2023/01/31 10:22:49;;;;;;;8.05;4.18;;;3.50;99.90;;;;;;5097562;28;20047;-30
2023/01/31 10:25:25;;;;;;;6.05;3.90;;;3.50;99.90;;;;;;5050199;28;20333;-31
2023/01/31 10:28:16;;;;;;;4.80;2.72;;;3.60;99.90;;;;;;5090878;28;20036;-30
2023/01/31 10:30:50;;;;;;;3.38;2.85;;;3.60;99.90;;;;;;5089499;28;20042;-28
2023/01/31 10:33:54;;;;;;;3.25;2.15;;;3.70;99.90;;;;;;5079189;28;20020;-30
2023/01/31 10:36:51;;;;;;;5.40;2.55;;;3.70;99.90;;;;;;5057511;28;20052;-30
2023/01/31 10:39:43;;;;;;;5.97;2.93;;;3.80;99.90;;;;;;5074182;28;20032;-29
2023/01/31 10:42:30;;;;;;;5.57;2.50;;;3.80;99.90;;;;;;5091194;28;20032;-32
2023/01/31 10:45:21;;;;;;;3.20;2.60;;;3.70;99.90;;;;;;5093578;28;20078;-31
2023/01/31 10:48:14;;;;;;;4.25;2.53;;;3.70;99.90;;;;;;5091799;28;20024;-31
2023/01/31 10:51:13;;;;;;;4.38;2.25;;;3.70;99.90;;;;;;5091444;28;20039;-30
2023/01/31 10:53:57;;;;;;;4.72;2.55;;;3.70;99.90;;;;;;5091686;28;20027;-30
2023/01/31 10:56:33;;;;;;;6.00;3.15;;;3.70;99.90;;;;;;5090582;28;20031;-30
2023/01/31 10:59:01;;;;;;;3.55;2.25;;;3.60;99.90;;;;;;5088043;28;20384;-29
2023/01/31 11:01:27;;;;;;;2.97;2.15;;;3.60;99.90;;;;;;5096461;28;20085;-29
2023/01/31 11:03:55;;;;;;;3.03;2.05;;;3.70;99.90;;;;;;5094943;28;20084;-30
2023/01/31 11:06:22;;;;;;;7.43;2.58;;;3.60;99.90;;;;;;5092981;28;20027;-30
2023/01/31 11:08:57;;;;;;;7.18;2.95;;;3.70;99.90;;;;;;5086974;28;20033;-31
2023/01/31 11:11:25;;;;;;;2.45;2.25;;;3.70;99.90;;;;;;5074176;28;20135;-29
2023/01/31 11:14:06;;;;;;;1.80;1.70;;;3.70;99.90;;;;;;5073093;28;20119;-31
2023/01/31 11:16:39;;;;;;;3.17;2.10;;;3.70;99.90;;;;;;5077650;28;20030;-30
2023/01/31 11:19:28;;;;;;;3.83;2.60;;;3.80;99.90;;;;;;5049121;28;20017;-31
2023/01/31 11:21:55;;;;;;;5.75;3.17;;;3.80;99.90;;;;;;5059159;28;20054;-31
2023/01/31 11:24:23;;;;;;;4.75;2.42;;;3.80;99.90;;;;;;5077139;28;20031;-32
2023/01/31 11:26:57;;;;;;;2.05;1.88;;;3.90;99.90;;;;;;5064655;28;20054;-31
2023/01/31 11:29:49;;;;;;;2.65;1.52;;;3.80;99.90;;;;;;5068342;28;20104;-31
2023/01/31 11:32:21;;;;;;;6.97;3.22;;;3.80;99.90;;;;;;5071615;28;20085;-30
2023/01/31 11:35:24;;;;;;;6.38;3.00;;;3.70;99.90;;;;;;5043232;28;20032;-33
2023/01/31 11:37:59;;;;;;;5.55;2.67;;;3.70;99.90;;;;;;5075334;28;20036;-31
2023/01/31 11:40:33;;;;;;;1.80;1.70;;;3.70;99.90;;;;;;5071467;28;20028;-34
2023/01/31 11:42:59;;;;;;;2.50;2.08;;;3.70;99.90;;;;;;5073871;28;20028;-33
2023/01/31 11:45:29;;;;;;;5.72;2.97;;;3.70;99.90;;;;;;5076017;28;20539;-31
2023/01/31 11:47:58;;;;;;;4.60;2.88;;;3.70;99.90;;;;;;5070233;28;20487;-30
2023/01/31 11:50:33;;;;;;;2.50;1.88;;;3.70;99.90;;;;;;5068725;28;20541;-30
2023/01/31 11:53:14;;;;;;;1.90;1.80;;;3.80;99.90;;;;;;5076592;28;20039;-28
2023/01/31 11:55:41;;;;;;;4.63;2.80;;;3.90;99.90;;;;;;5067087;28;20131;-29
2023/01/31 11:58:15;;;;;;;3.15;2.17;;;3.80;99.90;;;;;;5073649;28;20127;-29
2023/01/31 12:00:52;;;;;;;2.17;1.98;;;3.90;99.90;;;;;;5063531;28;20708;-30
2023/01/31 12:03:18;;;;;;;6.68;2.45;;;4.00;99.90;;;;;;5076343;28;20469;-29
2023/01/31 12:05:48;;;;;;;3.47;2.53;;;4.00;99.90;;;;;;5069881;28;20025;-29
2023/01/31 12:08:36;;;;;;;3.40;2.30;;;4.00;99.90;;;;;;5077312;28;20016;-29
2023/01/31 12:11:26;;;;;;;3.78;2.08;;;4.00;99.90;;;;;;5098600;28;20054;-29
2023/01/31 12:14:13;;;;;;;2.35;2.15;;;3.90;99.90;;;;;;5095002;28;20457;-29
2023/01/31 12:16:39;;;;;;;5.53;2.33;;;3.80;99.90;;;;;;5093742;28;20028;-29
2023/01/31 12:19:19;;;;;;;4.60;2.30;;;4.00;99.90;;;;;;5098202;28;20027;-30
2023/01/31 12:21:57;;;;;;;1.52;1.42;;;4.20;99.90;;;;;;5097257;28;20035;-30
2023/01/31 12:24:51;;;;;;;3.10;2.45;;;4.20;99.90;;;;;;5091068;28;20221;-30
2023/01/31 12:27:35;;;;;;;6.18;3.03;;;4.40;99.90;;;;;;5087125;28;20024;-29
2023/01/31 12:30:15;;;;;;;3.92;2.15;;;4.70;99.90;;;;;;5097262;28;20023;-30
2023/01/31 12:32:59;;;;;;;6.38;3.03;;;4.60;99.90;;;;;;5090751;28;20524;-30
2023/01/31 12:35:55;;;;;;;8.57;4.28;;;4.60;99.90;;;;;;5100488;28;20423;-30
2023/01/31 12:38:50;;;;;;;4.15;2.60;;;4.70;99.90;;;;;;5092473;28;20060;-30
2023/01/31 12:41:52;;;;;;;6.85;3.10;;;4.80;99.90;;;;;;5092373;28;20039;-30
2023/01/31 12:44:40;;;;;;;3.65;2.33;;;4.80;99.90;;;;;;5043734;28;20307;-30
2023/01/31 12:47:06;;;;;;;9.32;3.20;;;4.70;99.90;;;;;;5089197;28;20040;-31
2023/01/31 12:50:10;;;;;;;5.80;3.08;;;4.70;99.90;;;;;;5093609;28;20461;-31
2023/01/31 12:52:45;;;;;;;4.57;2.72;;;5.00;99.90;;;;;;5095621;28;20012;-29
2023/01/31 12:55:25;;;;;;;4.68;2.60;;;5.10;99.90;;;;;;5093515;28;20031;-33
2023/01/31 12:57:53;;;;;;;6.43;3.03;;;4.90;99.90;;;;;;5097836;28;20054;-28
2023/01/31 13:00:41;;;;;;;;;;;4.80;99.90;;;;;;5088015;28;20065;-30
2023/01/31 13:03:32;;;;;;;1.67;1.50;;;4.70;99.90;;;;;;5094499;28;19935;-33
2023/01/31 13:06:14;;;;;;;3.67;2.17;;;4.60;99.90;;;;;;5082142;28;20377;-33
2023/01/31 13:08:44;;;;;;;4.30;3.03;;;4.60;99.90;;;;;;5093718;28;20032;-33
2023/01/31 13:11:21;;;;;;;4.47;3.20;;;4.60;99.90;;;;;;5087732;28;20493;-29
2023/01/31 13:13:48;;;;;;;4.43;1.98;;;4.60;99.90;;;;;;5097862;28;20031;-31
2023/01/31 13:16:20;;;;;;;2.47;2.00;;;4.60;99.90;;;;;;5086747;28;20032;-30
2023/01/31 13:18:50;;;;;;;3.53;2.30;;;4.60;99.90;;;;;;5098892;28;20493;-30
2023/01/31 13:21:20;;;;;;;3.17;2.28;;;4.50;99.90;;;;;;5090133;28;20032;-30
2023/01/31 13:23:50;;;;;;;4.80;2.15;;;4.40;99.90;;;;;;5096316;28;20032;-30